Historique des stations

Station météo de Boisseaux

Altitude de la station : 132 m







Données météorologiques pour le 05/07/2022
Date
Heure
Températures Humidité Point de rosée Vitesse
du vent
Direction Rafales Windchill Pression Pluviométrie
Cumul
Date
Heure
Températures Humidité Point de rosée Vitesse
du vent
Direction Rafales Windchill Pression Pluviométrie
Cumul
05/07/2022 19:4925.8 °C43 %12.2 °C5 km/hONO10 km/h25.6 1023 hPa-
05/07/2022 19:4526.0 °C41 %11.7 °C2 km/hO18 km/h26.1 1023 hPa-
05/07/2022 19:3326.4 °C38 %11.1 °C-OSO10 km/h26.7 1023 hPa-
05/07/2022 19:3026.4 °C39 %11.1 °C-SO18 km/h26.7 1023 hPa-
05/07/2022 19:1826.3 °C39 %11.1 °C-OSO8 km/h26.1 1023 hPa-
05/07/2022 19:1526.3 °C39 %11.1 °C6 km/hNO18 km/h26.1 1023 hPa-
05/07/2022 19:0426.3 °C39 %11.1 °C-NNO10 km/h26.1 1023 hPa-
05/07/2022 19:0026.4 °C39 %11.1 °C2 km/hO18 km/h26.7 1023 hPa-
05/07/2022 18:4826.6 °C41 %12.2 °C-OSO13 km/h26.7 1023 hPa-
05/07/2022 18:4526.5 °C41 %12.2 °C2 km/hO18 km/h26.7 1023 hPa-
05/07/2022 18:3326.8 °C39 %11.7 °C5 km/hSO14 km/h26.7 1023 hPa-
05/07/2022 18:3026.8 °C40 %12.2 °C-NO18 km/h26.7 1023 hPa-
05/07/2022 18:1926.8 °C38 %11.1 °C-NO11 km/h26.7 1023 hPa-
05/07/2022 18:1526.7 °C40 %12.2 °C3 km/hNO18 km/h26.7 1023 hPa-
05/07/2022 18:0326.3 °C40 %11.7 °C3 km/hO13 km/h26.1 1024 hPa-
05/07/2022 18:0026.3 °C41 %12.2 °C5 km/hO18 km/h26.1 1023 hPa-
05/07/2022 17:4926.6 °C41 %12.2 °C3 km/hOSO8 km/h26.7 1023 hPa-
05/07/2022 17:4526.6 °C40 %11.7 °C3 km/hONO18 km/h26.7 1023 hPa-
05/07/2022 17:3426.9 °C41 %12.8 °C2 km/hOSO11 km/h26.7 1023 hPa-
05/07/2022 17:3026.9 °C41 %12.8 °C5 km/hONO18 km/h26.7 1023 hPa-
05/07/2022 17:1927.1 °C42 %12.8 °C-OSO10 km/h27.2 1023 hPa-
05/07/2022 17:1526.8 °C41 %12.2 °C-ONO18 km/h26.7 1023 hPa-
05/07/2022 17:0427.1 °C40 %12.2 °C2 km/hONO8 km/h27.2 1023 hPa-
05/07/2022 17:0026.9 °C41 %12.8 °C-S18 km/h26.7 1024 hPa-
05/07/2022 16:4926.9 °C40 %12.2 °C-O13 km/h26.7 1024 hPa-
05/07/2022 16:4526.6 °C40 %11.7 °C2 km/hNO18 km/h26.7 1024 hPa-
05/07/2022 16:3526.4 °C41 %12.2 °C10 km/hSO10 km/h26.7 1024 hPa-
05/07/2022 16:3026.6 °C40 %11.7 °C3 km/hS18 km/h26.7 1024 hPa-
05/07/2022 16:2026.6 °C41 %12.2 °C2 km/hO11 km/h26.7 1024 hPa-
05/07/2022 16:1526.5 °C41 %12.2 °C2 km/hO18 km/h26.7 1024 hPa-
05/07/2022 16:0426.2 °C40 %11.7 °C-O10 km/h26.1 1024 hPa-
05/07/2022 16:0026.2 °C38 %10.6 °C5 km/hO18 km/h26.1 1024 hPa-
05/07/2022 15:4926.1 °C42 %12.2 °C3 km/hN13 km/h26.1 1024 hPa-
05/07/2022 15:4526.0 °C42 %12.2 °C5 km/hONO14 km/h26.1 1024 hPa-
05/07/2022 15:3426.2 °C43 %12.8 °C5 km/hONO18 km/h26.1 1024 hPa-
05/07/2022 15:3025.9 °C42 %12.2 °C2 km/hSSE14 km/h26.1 1024 hPa-
05/07/2022 15:1926.1 °C43 %12.8 °C5 km/hO13 km/h26.1 1024 hPa-
05/07/2022 15:1526.1 °C41 %11.7 °C5 km/hNO14 km/h26.1 1024 hPa-
05/07/2022 15:0425.6 °C42 %11.7 °C-SO14 km/h25.6 1024 hPa-
05/07/2022 15:0025.8 °C42 %11.7 °C-O14 km/h26.1 1024 hPa-
05/07/2022 14:5025.6 °C43 %12.2 °C3 km/hO13 km/h25.6 1024 hPa-
05/07/2022 14:4525.7 °C44 %12.2 °C3 km/hSO14 km/h25.6 1024 hPa-
05/07/2022 14:3526.4 °C44 %13.3 °C6 km/hO10 km/h26.7 1024 hPa-
05/07/2022 14:3026.1 °C43 %12.8 °C3 km/hNNE14 km/h26.1 1024 hPa-
05/07/2022 14:2025.7 °C44 %12.8 °C2 km/hONO10 km/h25.6 1024 hPa-
05/07/2022 14:1525.4 °C42 %11.7 °C-SO14 km/h25.6 1024 hPa-
05/07/2022 14:0525.0 °C41 %10.6 °C2 km/hO13 km/h25.0 1024 hPa-
05/07/2022 14:0025.1 °C44 %11.7 °C-ONO14 km/h25.0 1024 hPa-
05/07/2022 13:5024.9 °C42 %11.1 °C3 km/hENE14 km/h25.0 1024 hPa-
05/07/2022 13:4624.8 °C44 %11.7 °C10 km/hNNO13 km/h25.0 1024 hPa-
05/07/2022 13:3524.7 °C44 %11.7 °C8 km/hSO11 km/h24.4 1024 hPa-
05/07/2022 13:3124.6 °C44 %11.7 °C2 km/hOSO13 km/h24.4 1024 hPa-
05/07/2022 13:1824.6 °C45 %11.7 °C3 km/hNNO11 km/h24.4 1024 hPa-
05/07/2022 13:1624.6 °C47 %12.2 °C2 km/hOSO13 km/h24.4 1024 hPa-
05/07/2022 13:0424.1 °C49 %12.8 °C6 km/hONO11 km/h23.9 1024 hPa-
05/07/2022 13:0124.2 °C45 %11.7 °C5 km/hSO13 km/h24.4 1024 hPa-
05/07/2022 12:4924.2 °C49 %12.8 °C5 km/hONO10 km/h24.4 1024 hPa-
05/07/2022 12:4523.8 °C48 %12.2 °C3 km/hO13 km/h23.9 1024 hPa-
05/07/2022 12:3423.6 °C49 %12.2 °C-OSO11 km/h23.3 1024 hPa-
05/07/2022 12:3023.3 °C48 %11.7 °C-SSO13 km/h23.3 1024 hPa-
05/07/2022 12:1922.9 °C51 %12.2 °C2 km/hONO10 km/h22.8 1024 hPa-
05/07/2022 12:1522.8 °C51 %12.2 °C2 km/hSO13 km/h22.8 1024 hPa-
05/07/2022 12:0423.1 °C53 %12.8 °C3 km/hNO8 km/h23.3 1024 hPa-
05/07/2022 12:0022.9 °C53 %12.8 °C-SO11 km/h22.8 1025 hPa-
05/07/2022 11:4922.3 °C55 %12.8 °C-SSE10 km/h22.2 1024 hPa-
05/07/2022 11:4522.1 °C54 %12.2 °C2 km/hOSO11 km/h22.2 1025 hPa-
05/07/2022 11:3422.2 °C54 %12.2 °C2 km/hONO6 km/h22.2 1025 hPa-
05/07/2022 11:3022.2 °C56 %12.8 °C3 km/hNO11 km/h22.2 1025 hPa-
05/07/2022 11:1921.4 °C58 %12.8 °C-ESE6 km/h21.7 1024 hPa-
05/07/2022 11:1521.2 °C59 %12.8 °C-O11 km/h21.1 1025 hPa-
05/07/2022 11:0420.8 °C60 %12.8 °C-ONO8 km/h21.1 1025 hPa-
05/07/2022 11:0021.2 °C60 %13.3 °C3 km/hNO11 km/h21.1 1025 hPa-
05/07/2022 10:4920.7 °C62 %12.8 °C-SSO5 km/h20.6 1025 hPa-
05/07/2022 10:4520.4 °C64 %13.3 °C-E11 km/h20.6 1025 hPa-
05/07/2022 10:3419.8 °C65 %12.8 °C5 km/hOSO11 km/h20.0 1025 hPa-
05/07/2022 10:3019.8 °C63 %12.8 °C5 km/hNNO11 km/h20.0 1025 hPa-
05/07/2022 10:1919.6 °C68 %13.3 °C6 km/hNNE8 km/h19.4 1025 hPa-
05/07/2022 10:1519.6 °C67 %13.3 °C-ONO8 km/h19.4 1025 hPa-
05/07/2022 10:0419.3 °C68 %13.3 °C2 km/hOSO8 km/h19.4 1025 hPa-
05/07/2022 10:0019.3 °C68 %13.3 °C-NO8 km/h19.4 1025 hPa-
05/07/2022 09:4919.0 °C69 %13.3 °C2 km/hNO5 km/h18.9 1025 hPa-
05/07/2022 09:4518.9 °C71 %13.3 °C-S8 km/h18.9 1025 hPa-
05/07/2022 09:3418.7 °C72 %13.3 °C-N3 km/h18.9 1025 hPa-
05/07/2022 09:3018.5 °C74 %13.9 °C-SO8 km/h18.3 1025 hPa-
05/07/2022 09:1917.7 °C76 %13.3 °C-N3 km/h17.8 1025 hPa-
05/07/2022 09:1617.8 °C77 %13.9 °C2 km/hO8 km/h17.8 1025 hPa-
05/07/2022 09:0417.0 °C79 %13.3 °C-O6 km/h17.2 1025 hPa-
05/07/2022 09:0016.8 °C80 %13.3 °C-SO8 km/h16.7 1025 hPa-
05/07/2022 08:4816.2 °C83 %13.3 °C-OSO5 km/h16.1 1025 hPa-
05/07/2022 08:4516.0 °C83 %13.3 °C3 km/hONO8 km/h16.1 1025 hPa-
05/07/2022 08:3415.6 °C84 %12.8 °C3 km/hOSO6 km/h15.6 1025 hPa-
05/07/2022 08:3015.4 °C86 %13.3 °C2 km/hONO8 km/h15.6 1025 hPa-
05/07/2022 08:1814.7 °C87 %12.8 °C2 km/hO6 km/h15.0 1025 hPa-
05/07/2022 08:1514.5 °C87 %12.2 °C-O8 km/h14.4 1024 hPa-
05/07/2022 08:0314.0 °C88 %12.2 °C3 km/hONO5 km/h13.9 1024 hPa-
05/07/2022 08:0013.9 °C89 %12.2 °C2 km/hO8 km/h13.9 1024 hPa-
05/07/2022 07:4813.3 °C89 %11.7 °C-O8 km/h13.3 1024 hPa-
05/07/2022 07:4513.2 °C90 %11.7 °C2 km/hNO8 km/h13.3 1024 hPa-
05/07/2022 07:3312.2 °C92 %11.1 °C2 km/hOSO6 km/h12.2 1024 hPa-
05/07/2022 07:3012.0 °C92 %10.6 °C3 km/hONO6 km/h12.2 1024 hPa-
05/07/2022 07:1811.5 °C92 %10.6 °C-ONO8 km/h11.7 1024 hPa-
05/07/2022 07:1511.4 °C93 %10.6 °C2 km/hO6 km/h11.7 1024 hPa-
05/07/2022 07:0311.0 °C93 %10.0 °C2 km/hONO5 km/h11.1 1024 hPa-
05/07/2022 07:0010.8 °C93 %10.0 °C-NO6 km/h11.1 1024 hPa-
05/07/2022 06:4810.4 °C92 %9.4 °C2 km/hO2 km/h10.6 1024 hPa-
05/07/2022 06:4510.3 °C92 %8.9 °C-ONO6 km/h10.6 1024 hPa-
05/07/2022 06:3310.2 °C92 %8.9 °C-NO3 km/h10.0 1024 hPa-
05/07/2022 06:3010.2 °C92 %8.9 °C2 km/hO6 km/h10.0 1024 hPa-
05/07/2022 06:1810.2 °C92 %8.9 °C-O3 km/h10.0 1024 hPa-
05/07/2022 06:1510.2 °C92 %8.9 °C2 km/hO6 km/h10.0 1024 hPa-
05/07/2022 06:0310.2 °C91 %8.9 °C2 km/hONO2 km/h10.0 1024 hPa-
05/07/2022 06:0010.2 °C91 %8.9 °C-ONO6 km/h10.0 1024 hPa-
05/07/2022 05:4810.3 °C91 %8.9 °C-ONO2 km/h10.6 1024 hPa-
05/07/2022 05:4510.4 °C91 %8.9 °C2 km/hONO6 km/h10.6 1024 hPa-
05/07/2022 05:3310.4 °C91 %8.9 °C-ONO3 km/h10.6 1024 hPa-
05/07/2022 05:3010.6 °C91 %9.4 °C-ONO6 km/h10.6 1024 hPa-
05/07/2022 05:1810.7 °C91 %9.4 °C-NO3 km/h10.6 1024 hPa-
05/07/2022 05:1510.7 °C91 %9.4 °C-NO6 km/h10.6 1024 hPa-
05/07/2022 05:0310.8 °C91 %9.4 °C-ONO3 km/h10.6 1024 hPa-
05/07/2022 05:0010.8 °C91 %9.4 °C-O6 km/h11.1 1024 hPa-
05/07/2022 04:4810.9 °C90 %9.4 °C-NO5 km/h11.1 1023 hPa-
05/07/2022 04:4511.0 °C90 %9.4 °C2 km/hONO5 km/h11.1 1023 hPa-
05/07/2022 04:3311.0 °C91 %9.4 °C3 km/hO5 km/h11.1 1023 hPa-
05/07/2022 04:3011.0 °C91 %9.4 °C2 km/hO5 km/h11.1 1023 hPa-
05/07/2022 04:1810.9 °C90 %9.4 °C-O2 km/h11.1 1023 hPa-
05/07/2022 04:1510.9 °C90 %9.4 °C-O5 km/h11.1 1024 hPa-
05/07/2022 04:0311.0 °C90 %9.4 °C-O2 km/h11.1 1023 hPa-
05/07/2022 04:0011.1 °C90 %9.4 °C-O5 km/h11.1 1023 hPa-
05/07/2022 03:4811.1 °C89 %9.4 °C-O2 km/h11.1 1023 hPa-
05/07/2022 03:4511.2 °C89 %9.4 °C-ONO5 km/h11.1 1023 hPa-
05/07/2022 03:3311.5 °C88 %9.4 °C-ONO3 km/h11.7 1023 hPa-
05/07/2022 03:3011.7 °C87 %9.4 °C-ONO5 km/h11.7 1023 hPa-
05/07/2022 03:1812.0 °C88 %10.0 °C-O2 km/h12.2 1023 hPa-
05/07/2022 03:1512.1 °C88 %10.0 °C-ONO5 km/h12.2 1023 hPa-
05/07/2022 03:0311.9 °C88 %10.0 °C-ONO3 km/h12.2 1023 hPa-
05/07/2022 03:0011.9 °C88 %10.0 °C2 km/hONO5 km/h11.7 1023 hPa-
05/07/2022 02:4811.9 °C87 %10.0 °C-O2 km/h11.7 1023 hPa-
05/07/2022 02:4511.9 °C87 %10.0 °C-O5 km/h12.2 1023 hPa-
05/07/2022 02:3312.2 °C86 %10.0 °C-O2 km/h12.2 1023 hPa-
05/07/2022 02:3012.4 °C86 %10.0 °C-O5 km/h12.2 1023 hPa-
05/07/2022 02:1812.6 °C85 %10.0 °C-OSO2 km/h12.8 1023 hPa-
05/07/2022 02:1512.7 °C85 %10.6 °C-OSO5 km/h12.8 1023 hPa-
05/07/2022 02:0313.1 °C84 %10.6 °C-SO2 km/h13.3 1023 hPa-
05/07/2022 02:0013.2 °C84 %10.6 °C-SO5 km/h13.3 1023 hPa-
05/07/2022 01:4813.4 °C83 %10.6 °C-SO2 km/h13.3 1023 hPa-
05/07/2022 01:4513.6 °C83 %10.6 °C-O5 km/h13.3 1024 hPa-
05/07/2022 01:3313.8 °C81 %10.6 °C2 km/hSO3 km/h13.9 1023 hPa-
05/07/2022 01:3013.9 °C81 %10.6 °C-OSO5 km/h13.9 1023 hPa-
05/07/2022 01:1814.3 °C80 %11.1 °C-OSO3 km/h14.4 1024 hPa-
05/07/2022 01:1514.3 °C79 %10.6 °C-O5 km/h14.4 1023 hPa-
05/07/2022 01:0314.8 °C78 %11.1 °C-ENE3 km/h15.0 1023 hPa-
05/07/2022 01:0114.9 °C78 %11.1 °C-NNO5 km/h15.0 1023 hPa-
05/07/2022 00:4815.1 °C77 %11.1 °C-SO5 km/h15.0 1023 hPa-
05/07/2022 00:4615.1 °C77 %11.1 °C-SO5 km/h15.0 1023 hPa-
05/07/2022 00:3215.1 °C76 %11.1 °C-OSO2 km/h15.0 1023 hPa-
05/07/2022 00:3015.2 °C76 %11.1 °C-SO5 km/h15.0 1023 hPa-
05/07/2022 00:1815.6 °C74 %11.1 °C-O5 km/h15.6 1023 hPa-
05/07/2022 00:1515.7 °C73 %11.1 °C-OSO5 km/h15.6 1023 hPa-
05/07/2022 00:0416.1 °C72 %11.1 °C-NO5 km/h16.1 1023 hPa-
05/07/2022 00:0116.2 °C72 %11.1 °C-ONO3 km/h16.1 1023 hPa-


Minima :

Température : 10.2 °C
Humidité : 38 %
Point de rosée : 8.9 °C
Vent moyen : 2 km/h
Windchill : 10.0
Pression atm. : 1023 hPa
Maxima :

Température : 27.1 °C
Humidité : 93 %
Point de rosée : 13.9 °C
Vent moyen : 10 km/h
Windchill : 27.2
Pression atm. : 1025 hPa
Rafales max : 18 km/h
Cumul de pluie sur 24H : 0 mm

Boisseaux est une commune du département Loiret (45).
La station météorologique du réseau de l'association la plus proche de Boisseaux est celle de Bellegarde



Icône Facebook Association Météo Centre Icône Twitter Association Météo Centre Icône Chaîne Youtube Association Météo Centre Icône contact Association Météo Centre Icône Insta Association Météo Centre